SWR105W EDDH-LSZH
Flight info
| Callsign | SWR105W |
|---|---|
| Flight time | 1h 20m |
| Altitude | 33000 |
| Route | IDEKO7G IDEKO N850 ISPOF/N0444F350 N850 ROBEG DCT SWALM/N0443F340 DCT OMOGI/N0447F350 T721 LAMGO/N0391F230 T721 RILAX |
| Aircraft | A320/M-SDE2E3FGIRWXY/L |
Departure
| Time | 2026-05-05 18:31 |
|---|---|
| Airport | Hamburg Helmut Schmidt Airport (EDDH) |
Arrival
| Time | 2026-05-05 19:51 |
|---|---|
| Airport | Zürich Airport (LSZH) |
| Time | Latitude | Longitude | Altitude | Speed | Heading |
|---|---|---|---|---|---|
| 2026-05-05 17:58 | 53.63295 | 10.00356 | 51 ft | 0 kts | 87° |
| 2026-05-05 18:21 | 53.63295 | 10.00355 | 51 ft | 1 kts | 87° |
| 2026-05-05 18:21 | 53.63294 | 10.00315 | 51 ft | 4 kts | 94° |
| 2026-05-05 18:21 | 53.63299 | 10.00270 | 48 ft | 4 kts | 112° |
| 2026-05-05 18:22 | 53.63313 | 10.00237 | 48 ft | 4 kts | 166° |
| 2026-05-05 18:22 | 53.63322 | 10.00234 | 47 ft | 0 kts | 176° |
| 2026-05-05 18:24 | 53.63321 | 10.00235 | 51 ft | 1 kts | 176° |
| 2026-05-05 18:25 | 53.63296 | 10.00237 | 51 ft | 6 kts | 176° |
| 2026-05-05 18:25 | 53.63258 | 10.00242 | 51 ft | 10 kts | 176° |
| 2026-05-05 18:25 | 53.63135 | 10.00256 | 51 ft | 13 kts | 175° |
| 2026-05-05 18:25 | 53.63050 | 10.00239 | 51 ft | 12 kts | 209° |
| 2026-05-05 18:26 | 53.62983 | 10.00169 | 50 ft | 11 kts | 212° |
| 2026-05-05 18:26 | 53.62922 | 10.00104 | 51 ft | 11 kts | 212° |
| 2026-05-05 18:26 | 53.62860 | 10.00012 | 67 ft | 12 kts | 242° |
| 2026-05-05 18:26 | 53.62842 | 9.99952 | 49 ft | 0 kts | 243° |
| 2026-05-05 18:29 | 53.62835 | 9.99927 | 50 ft | 6 kts | 243° |
| 2026-05-05 18:30 | 53.62804 | 9.99826 | 46 ft | 10 kts | 244° |
| 2026-05-05 18:30 | 53.62823 | 9.99783 | 47 ft | 4 kts | 324° |
| 2026-05-05 18:30 | 53.62832 | 9.99775 | 49 ft | 0 kts | 330° |
| 2026-05-05 18:30 | 53.62852 | 9.99756 | 49 ft | 15 kts | 330° |
| 2026-05-05 18:31 | 53.63196 | 9.99461 | 50 ft | 94 kts | 333° |
| 2026-05-05 18:31 | 53.63970 | 9.98793 | 51 ft | 154 kts | 333° |
| 2026-05-05 18:31 | 53.64992 | 9.97903 | 558 ft | 165 kts | 336° |
| 2026-05-05 18:31 | 53.66030 | 9.97038 | 1312 ft | 168 kts | 338° |
| 2026-05-05 18:32 | 53.67081 | 9.96159 | 2109 ft | 169 kts | 338° |
| 2026-05-05 18:32 | 53.68131 | 9.95260 | 2833 ft | 170 kts | 336° |
| 2026-05-05 18:32 | 53.69198 | 9.94337 | 3446 ft | 179 kts | 336° |
| 2026-05-05 18:32 | 53.70368 | 9.93338 | 3890 ft | 197 kts | 335° |
| 2026-05-05 18:33 | 53.71461 | 9.91780 | 4266 ft | 222 kts | 301° |
| 2026-05-05 18:33 | 53.71773 | 9.89127 | 4737 ft | 247 kts | 265° |
| 2026-05-05 18:33 | 53.71363 | 9.86171 | 5287 ft | 270 kts | 252° |
| 2026-05-05 18:33 | 53.70685 | 9.83189 | 6267 ft | 272 kts | 248° |
| 2026-05-05 18:34 | 53.69955 | 9.80247 | 7334 ft | 271 kts | 248° |
| 2026-05-05 18:34 | 53.69242 | 9.77293 | 8357 ft | 273 kts | 249° |
| 2026-05-05 18:34 | 53.68561 | 9.74292 | 9354 ft | 275 kts | 250° |
| 2026-05-05 18:34 | 53.67906 | 9.71235 | 10251 ft | 282 kts | 251° |
| 2026-05-05 18:35 | 53.67238 | 9.67979 | 10602 ft | 306 kts | 251° |
| 2026-05-05 18:35 | 53.66384 | 9.64552 | 10875 ft | 330 kts | 241° |
| 2026-05-05 18:35 | 53.64969 | 9.61368 | 11280 ft | 348 kts | 226° |
| 2026-05-05 18:35 | 53.63034 | 9.58836 | 11976 ft | 357 kts | 211° |
| 2026-05-05 18:36 | 53.60729 | 9.57207 | 12732 ft | 364 kts | 196° |
| 2026-05-05 18:36 | 53.58211 | 9.56520 | 13497 ft | 370 kts | 188° |
| 2026-05-05 18:36 | 53.55642 | 9.56010 | 14204 ft | 374 kts | 188° |
| 2026-05-05 18:36 | 53.53045 | 9.55506 | 14879 ft | 377 kts | 188° |
| 2026-05-05 18:37 | 53.50424 | 9.55003 | 15569 ft | 381 kts | 188° |
| 2026-05-05 18:37 | 53.47780 | 9.54494 | 16251 ft | 384 kts | 188° |
| 2026-05-05 18:37 | 53.45112 | 9.53976 | 16935 ft | 388 kts | 188° |
| 2026-05-05 18:37 | 53.42391 | 9.53440 | 17624 ft | 391 kts | 188° |
| 2026-05-05 18:38 | 53.39670 | 9.52901 | 18293 ft | 395 kts | 188° |
| 2026-05-05 18:38 | 53.36937 | 9.52361 | 18880 ft | 398 kts | 188° |
| 2026-05-05 18:38 | 53.34180 | 9.51817 | 19491 ft | 400 kts | 188° |
| 2026-05-05 18:38 | 53.31409 | 9.51271 | 20071 ft | 402 kts | 188° |
| 2026-05-05 18:39 | 53.28623 | 9.50725 | 20647 ft | 405 kts | 188° |
| 2026-05-05 18:39 | 53.25819 | 9.50179 | 21206 ft | 407 kts | 188° |
| 2026-05-05 18:39 | 53.22999 | 9.49628 | 21749 ft | 409 kts | 188° |
| 2026-05-05 18:39 | 53.20163 | 9.49074 | 22284 ft | 411 kts | 188° |
| 2026-05-05 18:40 | 53.17312 | 9.48520 | 22798 ft | 413 kts | 188° |
| 2026-05-05 18:40 | 53.14445 | 9.47965 | 23299 ft | 416 kts | 188° |
| 2026-05-05 18:40 | 53.11572 | 9.47410 | 23727 ft | 418 kts | 188° |
| 2026-05-05 18:40 | 53.08669 | 9.46851 | 24135 ft | 420 kts | 188° |
| 2026-05-05 18:41 | 53.05769 | 9.46290 | 24535 ft | 421 kts | 189° |
| 2026-05-05 18:41 | 53.02851 | 9.45723 | 24929 ft | 423 kts | 189° |
| 2026-05-05 18:41 | 52.99918 | 9.45153 | 25312 ft | 425 kts | 189° |
| 2026-05-05 18:41 | 52.96981 | 9.44571 | 25690 ft | 426 kts | 189° |
| 2026-05-05 18:42 | 52.94033 | 9.43950 | 26057 ft | 428 kts | 189° |
| 2026-05-05 18:42 | 52.91077 | 9.43308 | 26414 ft | 429 kts | 189° |
| 2026-05-05 18:42 | 52.88114 | 9.42656 | 26757 ft | 431 kts | 189° |
| 2026-05-05 18:42 | 52.85138 | 9.42003 | 27092 ft | 432 kts | 189° |
| 2026-05-05 18:43 | 52.82149 | 9.41358 | 27414 ft | 434 kts | 189° |
| 2026-05-05 18:43 | 52.79112 | 9.40707 | 27723 ft | 435 kts | 189° |
| 2026-05-05 18:43 | 52.76139 | 9.40074 | 28011 ft | 437 kts | 189° |
| 2026-05-05 18:43 | 52.73084 | 9.39431 | 28284 ft | 438 kts | 189° |
| 2026-05-05 18:44 | 52.70055 | 9.38794 | 28534 ft | 439 kts | 189° |
| 2026-05-05 18:44 | 52.67018 | 9.38156 | 28774 ft | 440 kts | 189° |
| 2026-05-05 18:44 | 52.63984 | 9.37516 | 29102 ft | 439 kts | 189° |
| 2026-05-05 18:44 | 52.60958 | 9.36864 | 29453 ft | 437 kts | 190° |
| 2026-05-05 18:45 | 52.57952 | 9.36134 | 29797 ft | 436 kts | 191° |
| 2026-05-05 18:45 | 52.54962 | 9.35342 | 30118 ft | 434 kts | 191° |
| 2026-05-05 18:45 | 52.51987 | 9.34521 | 30427 ft | 433 kts | 191° |
| 2026-05-05 18:45 | 52.49025 | 9.33701 | 30751 ft | 431 kts | 191° |
| 2026-05-05 18:46 | 52.46076 | 9.32897 | 31076 ft | 429 kts | 191° |
| 2026-05-05 18:46 | 52.43137 | 9.32116 | 31400 ft | 427 kts | 191° |
| 2026-05-05 18:46 | 52.40215 | 9.31356 | 31726 ft | 425 kts | 191° |
| 2026-05-05 18:46 | 52.37302 | 9.30603 | 32057 ft | 423 kts | 191° |
| 2026-05-05 18:47 | 52.34402 | 9.29852 | 32384 ft | 421 kts | 191° |
| 2026-05-05 18:47 | 52.31514 | 9.29102 | 32709 ft | 419 kts | 190° |
| 2026-05-05 18:47 | 52.28634 | 9.28354 | 32848 ft | 418 kts | 190° |
| 2026-05-05 18:47 | 52.25762 | 9.27603 | 32864 ft | 417 kts | 190° |
| 2026-05-05 18:48 | 52.19984 | 9.26812 | 32862 ft | 418 kts | 183° |
| 2026-05-05 18:48 | 52.14162 | 9.26565 | 32861 ft | 418 kts | 183° |
| 2026-05-05 18:49 | 52.08344 | 9.26312 | 32856 ft | 418 kts | 183° |
| 2026-05-05 18:49 | 52.02488 | 9.26055 | 33126 ft | 418 kts | 183° |
| 2026-05-05 18:50 | 51.99578 | 9.25930 | 33462 ft | 417 kts | 183° |
| 2026-05-05 18:50 | 51.96690 | 9.25806 | 33805 ft | 415 kts | 182° |
| 2026-05-05 18:50 | 51.93808 | 9.25682 | 34090 ft | 414 kts | 183° |
| 2026-05-05 18:50 | 51.90931 | 9.25556 | 34338 ft | 414 kts | 183° |
| 2026-05-05 18:51 | 51.88063 | 9.25430 | 34553 ft | 415 kts | 183° |
| 2026-05-05 18:51 | 51.85177 | 9.25304 | 34753 ft | 416 kts | 183° |
| 2026-05-05 18:51 | 51.79381 | 9.25050 | 34830 ft | 417 kts | 183° |
| 2026-05-05 18:52 | 51.73586 | 9.24806 | 34828 ft | 417 kts | 182° |
| 2026-05-05 18:52 | 51.67787 | 9.24570 | 34820 ft | 417 kts | 182° |
| 2026-05-05 18:53 | 51.61993 | 9.24325 | 34817 ft | 417 kts | 182° |
| 2026-05-05 18:53 | 51.56193 | 9.24077 | 34814 ft | 417 kts | 182° |
| 2026-05-05 18:54 | 51.50396 | 9.23828 | 34812 ft | 417 kts | 182° |
| 2026-05-05 18:54 | 51.44603 | 9.23577 | 34810 ft | 416 kts | 182° |
| 2026-05-05 18:55 | 51.38805 | 9.23339 | 34810 ft | 417 kts | 181° |
| 2026-05-05 18:55 | 51.33952 | 9.23146 | 34814 ft | 417 kts | 181° |
| 2026-05-05 18:56 | 51.28158 | 9.22897 | 34812 ft | 417 kts | 181° |
| 2026-05-05 18:56 | 51.22360 | 9.22644 | 34812 ft | 417 kts | 181° |
| 2026-05-05 18:57 | 51.16563 | 9.22407 | 34807 ft | 417 kts | 182° |
| 2026-05-05 18:57 | 51.10792 | 9.21476 | 34804 ft | 417 kts | 186° |
| 2026-05-05 18:58 | 51.05033 | 9.20254 | 34800 ft | 418 kts | 187° |
| 2026-05-05 18:58 | 50.99266 | 9.19006 | 34798 ft | 418 kts | 186° |
| 2026-05-05 18:59 | 50.93483 | 9.17816 | 34800 ft | 419 kts | 186° |
| 2026-05-05 18:59 | 50.87694 | 9.16657 | 34799 ft | 419 kts | 186° |
| 2026-05-05 19:00 | 50.81899 | 9.15484 | 34801 ft | 420 kts | 186° |
| 2026-05-05 19:00 | 50.76063 | 9.14298 | 34804 ft | 420 kts | 186° |
| 2026-05-05 19:01 | 50.70262 | 9.13133 | 34802 ft | 421 kts | 186° |
| 2026-05-05 19:01 | 50.64447 | 9.11970 | 34810 ft | 421 kts | 186° |
| 2026-05-05 19:02 | 50.58792 | 9.10833 | 34808 ft | 421 kts | 186° |
| 2026-05-05 19:02 | 50.53304 | 9.09729 | 34807 ft | 421 kts | 186° |
| 2026-05-05 19:03 | 50.47490 | 9.08559 | 34810 ft | 422 kts | 186° |
| 2026-05-05 19:03 | 50.41663 | 9.07400 | 34806 ft | 422 kts | 185° |
| 2026-05-05 19:04 | 50.35832 | 9.06249 | 34813 ft | 423 kts | 185° |
| 2026-05-05 19:04 | 50.29993 | 9.05096 | 34823 ft | 423 kts | 185° |
| 2026-05-05 19:05 | 50.24143 | 9.03943 | 34821 ft | 424 kts | 185° |
| 2026-05-05 19:05 | 50.20488 | 9.03066 | 34817 ft | 424 kts | 188° |
| 2026-05-05 19:06 | 50.14634 | 9.01820 | 34813 ft | 425 kts | 185° |
| 2026-05-05 19:06 | 50.08749 | 9.00845 | 34819 ft | 426 kts | 185° |
| 2026-05-05 19:07 | 50.02812 | 8.99785 | 34819 ft | 427 kts | 185° |
| 2026-05-05 19:07 | 49.96915 | 8.98628 | 34820 ft | 428 kts | 186° |
| 2026-05-05 19:08 | 49.91004 | 8.97446 | 34823 ft | 428 kts | 186° |
| 2026-05-05 19:08 | 49.85085 | 8.96284 | 34829 ft | 429 kts | 186° |
| 2026-05-05 19:09 | 49.79161 | 8.95134 | 34829 ft | 430 kts | 186° |
| 2026-05-05 19:09 | 49.73225 | 8.93989 | 34831 ft | 430 kts | 186° |
| 2026-05-05 19:10 | 49.67286 | 8.92838 | 34831 ft | 430 kts | 186° |
| 2026-05-05 19:10 | 49.61339 | 8.91704 | 34829 ft | 431 kts | 186° |
| 2026-05-05 19:11 | 49.55390 | 8.90567 | 34830 ft | 431 kts | 186° |
| 2026-05-05 19:11 | 49.49426 | 8.89424 | 34830 ft | 431 kts | 186° |
| 2026-05-05 19:12 | 49.43463 | 8.88272 | 34644 ft | 434 kts | 186° |
| 2026-05-05 19:12 | 49.40432 | 8.87694 | 34156 ft | 433 kts | 186° |
| 2026-05-05 19:12 | 49.37447 | 8.87127 | 33661 ft | 433 kts | 185° |
| 2026-05-05 19:13 | 49.34450 | 8.86557 | 33108 ft | 434 kts | 186° |
| 2026-05-05 19:13 | 49.31449 | 8.85982 | 32569 ft | 436 kts | 186° |
| 2026-05-05 19:13 | 49.28430 | 8.85408 | 32045 ft | 437 kts | 186° |
| 2026-05-05 19:13 | 49.25409 | 8.84840 | 31525 ft | 439 kts | 186° |
| 2026-05-05 19:14 | 49.22363 | 8.84270 | 31015 ft | 441 kts | 186° |
| 2026-05-05 19:14 | 49.19313 | 8.83698 | 30517 ft | 442 kts | 186° |
| 2026-05-05 19:14 | 49.16256 | 8.83121 | 30030 ft | 444 kts | 186° |
| 2026-05-05 19:14 | 49.13186 | 8.82538 | 29478 ft | 445 kts | 186° |
| 2026-05-05 19:15 | 49.10103 | 8.81956 | 28911 ft | 447 kts | 186° |
| 2026-05-05 19:15 | 49.07009 | 8.81376 | 28355 ft | 448 kts | 186° |
| 2026-05-05 19:15 | 49.03908 | 8.80792 | 27809 ft | 450 kts | 187° |
| 2026-05-05 19:15 | 49.00799 | 8.80205 | 27273 ft | 451 kts | 187° |
| 2026-05-05 19:16 | 48.97684 | 8.79614 | 26754 ft | 452 kts | 187° |
| 2026-05-05 19:16 | 48.94559 | 8.79024 | 26239 ft | 454 kts | 187° |
| 2026-05-05 19:16 | 48.91416 | 8.78439 | 25735 ft | 455 kts | 187° |
| 2026-05-05 19:16 | 48.88274 | 8.77853 | 25240 ft | 456 kts | 187° |
| 2026-05-05 19:17 | 48.85124 | 8.77162 | 24751 ft | 457 kts | 189° |
| 2026-05-05 19:17 | 48.81995 | 8.76352 | 24273 ft | 455 kts | 190° |
| 2026-05-05 19:17 | 48.78889 | 8.75475 | 23922 ft | 452 kts | 191° |
| 2026-05-05 19:17 | 48.75805 | 8.74578 | 23801 ft | 451 kts | 191° |
| 2026-05-05 19:18 | 48.72725 | 8.73690 | 23846 ft | 451 kts | 190° |
| 2026-05-05 19:18 | 48.69636 | 8.72822 | 23840 ft | 451 kts | 190° |
| 2026-05-05 19:18 | 48.66545 | 8.71981 | 23847 ft | 451 kts | 189° |
| 2026-05-05 19:18 | 48.63455 | 8.71158 | 23848 ft | 451 kts | 189° |
| 2026-05-05 19:19 | 48.60372 | 8.70348 | 23850 ft | 450 kts | 189° |
| 2026-05-05 19:19 | 48.57245 | 8.69530 | 23849 ft | 450 kts | 189° |
| 2026-05-05 19:19 | 48.54158 | 8.68720 | 23851 ft | 450 kts | 189° |
| 2026-05-05 19:19 | 48.51073 | 8.67909 | 23853 ft | 450 kts | 189° |
| 2026-05-05 19:20 | 48.47989 | 8.67095 | 23849 ft | 449 kts | 189° |
| 2026-05-05 19:20 | 48.44941 | 8.66285 | 23291 ft | 441 kts | 189° |
| 2026-05-05 19:20 | 48.41932 | 8.65486 | 22235 ft | 437 kts | 190° |
| 2026-05-05 19:20 | 48.38952 | 8.64697 | 21307 ft | 432 kts | 190° |
| 2026-05-05 19:21 | 48.36011 | 8.63899 | 20440 ft | 427 kts | 191° |
| 2026-05-05 19:21 | 48.33112 | 8.63050 | 19619 ft | 423 kts | 192° |
| 2026-05-05 19:21 | 48.30237 | 8.62165 | 19077 ft | 421 kts | 193° |
| 2026-05-05 19:21 | 48.27365 | 8.61265 | 18888 ft | 421 kts | 193° |
| 2026-05-05 19:22 | 48.24503 | 8.60375 | 18852 ft | 421 kts | 193° |
| 2026-05-05 19:22 | 48.21625 | 8.59495 | 18863 ft | 421 kts | 192° |
| 2026-05-05 19:22 | 48.18793 | 8.58640 | 18869 ft | 409 kts | 192° |
| 2026-05-05 19:22 | 48.16020 | 8.57811 | 18872 ft | 405 kts | 192° |
| 2026-05-05 19:23 | 48.13261 | 8.56993 | 18872 ft | 404 kts | 192° |
| 2026-05-05 19:23 | 48.11167 | 8.56373 | 18873 ft | 403 kts | 192° |
| 2026-05-05 19:23 | 48.08634 | 8.55622 | 18873 ft | 402 kts | 192° |
| 2026-05-05 19:23 | 48.05890 | 8.54807 | 18878 ft | 402 kts | 192° |
| 2026-05-05 19:24 | 48.03146 | 8.53988 | 18877 ft | 402 kts | 192° |
| 2026-05-05 19:24 | 48.00403 | 8.53197 | 18882 ft | 402 kts | 190° |
| 2026-05-05 19:24 | 47.97606 | 8.52957 | 18881 ft | 404 kts | 179° |
| 2026-05-05 19:24 | 47.94821 | 8.53517 | 18880 ft | 407 kts | 168° |
| 2026-05-05 19:25 | 47.92139 | 8.54892 | 18884 ft | 410 kts | 158° |
| 2026-05-05 19:25 | 47.90438 | 8.56265 | 18885 ft | 412 kts | 150° |
| 2026-05-05 19:25 | 47.88384 | 8.58569 | 18887 ft | 411 kts | 143° |
| 2026-05-05 19:25 | 47.86207 | 8.61269 | 18876 ft | 396 kts | 143° |
| 2026-05-05 19:26 | 47.84103 | 8.63840 | 18648 ft | 385 kts | 144° |
| 2026-05-05 19:26 | 47.82053 | 8.66318 | 18408 ft | 374 kts | 144° |
| 2026-05-05 19:26 | 47.80726 | 8.67916 | 18248 ft | 367 kts | 144° |
| 2026-05-05 19:26 | 47.78771 | 8.70271 | 17989 ft | 357 kts | 144° |
| 2026-05-05 19:27 | 47.76868 | 8.72565 | 17722 ft | 348 kts | 144° |
| 2026-05-05 19:27 | 47.75063 | 8.74741 | 17464 ft | 340 kts | 144° |
| 2026-05-05 19:27 | 47.73250 | 8.76926 | 17199 ft | 332 kts | 144° |
| 2026-05-05 19:27 | 47.71934 | 8.78512 | 17002 ft | 327 kts | 144° |
| 2026-05-05 19:28 | 47.70183 | 8.80620 | 16731 ft | 321 kts | 144° |
| 2026-05-05 19:28 | 47.68464 | 8.82688 | 16477 ft | 315 kts | 145° |
| 2026-05-05 19:28 | 47.66778 | 8.84716 | 16217 ft | 310 kts | 145° |
| 2026-05-05 19:28 | 47.65113 | 8.86717 | 15961 ft | 306 kts | 145° |
| 2026-05-05 19:29 | 47.63481 | 8.88688 | 15700 ft | 302 kts | 143° |
| 2026-05-05 19:29 | 47.62035 | 8.90942 | 15454 ft | 302 kts | 130° |
| 2026-05-05 19:29 | 47.60940 | 8.93586 | 15199 ft | 302 kts | 120° |
| 2026-05-05 19:29 | 47.59985 | 8.96345 | 14951 ft | 300 kts | 121° |
| 2026-05-05 19:30 | 47.59028 | 8.99082 | 14704 ft | 298 kts | 121° |
| 2026-05-05 19:30 | 47.58343 | 9.01036 | 14526 ft | 298 kts | 121° |
| 2026-05-05 19:30 | 47.57438 | 9.03829 | 14284 ft | 299 kts | 110° |
| 2026-05-05 19:30 | 47.57077 | 9.06870 | 14045 ft | 301 kts | 99° |
| 2026-05-05 19:31 | 47.56802 | 9.09941 | 13896 ft | 301 kts | 99° |
| 2026-05-05 19:31 | 47.56520 | 9.13007 | 13888 ft | 301 kts | 100° |
| 2026-05-05 19:31 | 47.56232 | 9.16075 | 13892 ft | 301 kts | 100° |
| 2026-05-05 19:31 | 47.55978 | 9.19133 | 13640 ft | 300 kts | 92° |
| 2026-05-05 19:32 | 47.56318 | 9.22152 | 13326 ft | 299 kts | 67° |
| 2026-05-05 19:32 | 47.57442 | 9.24696 | 13012 ft | 295 kts | 42° |
| 2026-05-05 19:32 | 47.59130 | 9.26341 | 12674 ft | 289 kts | 18° |
| 2026-05-05 19:32 | 47.61076 | 9.26888 | 12329 ft | 282 kts | 355° |
| 2026-05-05 19:33 | 47.62962 | 9.26331 | 11993 ft | 274 kts | 332° |
| 2026-05-05 19:33 | 47.64521 | 9.24809 | 11875 ft | 267 kts | 311° |
| 2026-05-05 19:33 | 47.65596 | 9.22606 | 11888 ft | 263 kts | 291° |
| 2026-05-05 19:33 | 47.66077 | 9.20032 | 11890 ft | 258 kts | 271° |
| 2026-05-05 19:34 | 47.65924 | 9.17409 | 11889 ft | 255 kts | 253° |
| 2026-05-05 19:34 | 47.65185 | 9.15036 | 11814 ft | 253 kts | 235° |
| 2026-05-05 19:34 | 47.63955 | 9.13196 | 11494 ft | 253 kts | 216° |
| 2026-05-05 19:35 | 47.60898 | 9.10598 | 10835 ft | 253 kts | 209° |
| 2026-05-05 19:35 | 47.59368 | 9.09277 | 10514 ft | 250 kts | 219° |
| 2026-05-05 19:35 | 47.58196 | 9.07406 | 10204 ft | 248 kts | 238° |
| 2026-05-05 19:35 | 47.57543 | 9.05054 | 9869 ft | 249 kts | 257° |
| 2026-05-05 19:36 | 47.57513 | 9.02499 | 9504 ft | 252 kts | 282° |
| 2026-05-05 19:36 | 47.58445 | 9.00310 | 9139 ft | 260 kts | 318° |
| 2026-05-05 19:36 | 47.60103 | 8.99219 | 8895 ft | 267 kts | 348° |
| 2026-05-05 19:36 | 47.61973 | 8.99407 | 8892 ft | 277 kts | 17° |
| 2026-05-05 19:37 | 47.63601 | 9.00932 | 8888 ft | 281 kts | 49° |
| 2026-05-05 19:37 | 47.64467 | 9.03480 | 8888 ft | 280 kts | 83° |
| 2026-05-05 19:37 | 47.64414 | 9.06329 | 8894 ft | 277 kts | 101° |
| 2026-05-05 19:37 | 47.64146 | 9.09155 | 8883 ft | 277 kts | 101° |
| 2026-05-05 19:38 | 47.63870 | 9.11976 | 8890 ft | 277 kts | 101° |
| 2026-05-05 19:38 | 47.63594 | 9.14799 | 8890 ft | 277 kts | 101° |
| 2026-05-05 19:38 | 47.63029 | 9.17470 | 8885 ft | 269 kts | 127° |
| 2026-05-05 19:38 | 47.61725 | 9.19342 | 8888 ft | 259 kts | 156° |
| 2026-05-05 19:39 | 47.60050 | 9.20004 | 8894 ft | 243 kts | 185° |
| 2026-05-05 19:39 | 47.58480 | 9.19330 | 8895 ft | 234 kts | 215° |
| 2026-05-05 19:39 | 47.57419 | 9.17545 | 8888 ft | 234 kts | 246° |
| 2026-05-05 19:39 | 47.57173 | 9.15184 | 8897 ft | 238 kts | 275° |
| 2026-05-05 19:40 | 47.57549 | 9.12776 | 8898 ft | 241 kts | 283° |
| 2026-05-05 19:40 | 47.58035 | 9.10361 | 8891 ft | 242 kts | 284° |
| 2026-05-05 19:40 | 47.58529 | 9.07984 | 8896 ft | 241 kts | 284° |
| 2026-05-05 19:40 | 47.59026 | 9.05609 | 8890 ft | 241 kts | 284° |
| 2026-05-05 19:41 | 47.59524 | 9.03241 | 8842 ft | 240 kts | 284° |
| 2026-05-05 19:41 | 47.60020 | 9.00887 | 8508 ft | 238 kts | 284° |
| 2026-05-05 19:41 | 47.60513 | 8.98550 | 8169 ft | 237 kts | 284° |
| 2026-05-05 19:41 | 47.60999 | 8.96232 | 7836 ft | 235 kts | 284° |
| 2026-05-05 19:42 | 47.61482 | 8.93932 | 7509 ft | 233 kts | 284° |
| 2026-05-05 19:42 | 47.61961 | 8.91648 | 7172 ft | 231 kts | 284° |
| 2026-05-05 19:42 | 47.62440 | 8.89395 | 6991 ft | 228 kts | 284° |
| 2026-05-05 19:42 | 47.62907 | 8.87143 | 6972 ft | 229 kts | 280° |
| 2026-05-05 19:43 | 47.62884 | 8.84838 | 6992 ft | 224 kts | 250° |
| 2026-05-05 19:43 | 47.62014 | 8.82970 | 6993 ft | 225 kts | 219° |
| 2026-05-05 19:43 | 47.60560 | 8.82118 | 6995 ft | 232 kts | 187° |
| 2026-05-05 19:43 | 47.58957 | 8.82574 | 6982 ft | 242 kts | 160° |
| 2026-05-05 19:44 | 47.57463 | 8.83750 | 6957 ft | 244 kts | 154° |
| 2026-05-05 19:44 | 47.56000 | 8.85019 | 6622 ft | 243 kts | 154° |
| 2026-05-05 19:44 | 47.54545 | 8.86301 | 6262 ft | 243 kts | 154° |
| 2026-05-05 19:44 | 47.53093 | 8.87581 | 5900 ft | 243 kts | 154° |
| 2026-05-05 19:45 | 47.51643 | 8.88856 | 5532 ft | 242 kts | 154° |
| 2026-05-05 19:45 | 47.50223 | 8.90098 | 5350 ft | 232 kts | 156° |
| 2026-05-05 19:45 | 47.48751 | 8.90717 | 5216 ft | 213 kts | 185° |
| 2026-05-05 19:45 | 47.47323 | 8.90519 | 5103 ft | 201 kts | 193° |
| 2026-05-05 19:46 | 47.45973 | 8.90205 | 5041 ft | 192 kts | 195° |
| 2026-05-05 19:46 | 47.44827 | 8.89371 | 4982 ft | 182 kts | 224° |
| 2026-05-05 19:46 | 47.44045 | 8.87941 | 4980 ft | 178 kts | 243° |
| 2026-05-05 19:46 | 47.43652 | 8.86216 | 4981 ft | 178 kts | 261° |
| 2026-05-05 19:47 | 47.43672 | 8.84398 | 4981 ft | 178 kts | 274° |
| 2026-05-05 19:47 | 47.43807 | 8.82585 | 4981 ft | 178 kts | 274° |
| 2026-05-05 19:47 | 47.43944 | 8.80739 | 4866 ft | 178 kts | 274° |
| 2026-05-05 19:47 | 47.44076 | 8.78932 | 4649 ft | 177 kts | 274° |
| 2026-05-05 19:48 | 47.44209 | 8.77124 | 4393 ft | 177 kts | 274° |
| 2026-05-05 19:48 | 47.44341 | 8.75322 | 4139 ft | 177 kts | 274° |
| 2026-05-05 19:48 | 47.44472 | 8.73516 | 3880 ft | 176 kts | 274° |
| 2026-05-05 19:48 | 47.44602 | 8.71731 | 3622 ft | 173 kts | 274° |
| 2026-05-05 19:49 | 47.44728 | 8.70002 | 3364 ft | 165 kts | 274° |
| 2026-05-05 19:49 | 47.44807 | 8.68915 | 3197 ft | 157 kts | 274° |
| 2026-05-05 19:49 | 47.44957 | 8.66865 | 2882 ft | 142 kts | 274° |
| 2026-05-05 19:49 | 47.45059 | 8.65465 | 2714 ft | 134 kts | 274° |
| 2026-05-05 19:50 | 47.45154 | 8.64136 | 2506 ft | 133 kts | 274° |
| 2026-05-05 19:50 | 47.45251 | 8.62778 | 2306 ft | 132 kts | 274° |
| 2026-05-05 19:50 | 47.45349 | 8.61419 | 2128 ft | 133 kts | 275° |
| 2026-05-05 19:50 | 47.45446 | 8.60052 | 1905 ft | 134 kts | 274° |
| 2026-05-05 19:51 | 47.45546 | 8.58680 | 1726 ft | 135 kts | 274° |
| 2026-05-05 19:51 | 47.45626 | 8.57561 | 1552 ft | 134 kts | 274° |
| 2026-05-05 19:51 | 47.45724 | 8.56203 | 1415 ft | 125 kts | 274° |
| 2026-05-05 19:51 | 47.45784 | 8.55288 | 1401 ft | 47 kts | 276° |
| 2026-05-05 19:52 | 47.45802 | 8.54977 | 1392 ft | 25 kts | 263° |
| 2026-05-05 19:52 | 47.45716 | 8.54872 | 1392 ft | 17 kts | 166° |
| 2026-05-05 19:52 | 47.45606 | 8.54945 | 1397 ft | 18 kts | 155° |
| 2026-05-05 19:52 | 47.45490 | 8.55040 | 1400 ft | 18 kts | 142° |
| 2026-05-05 19:53 | 47.45422 | 8.55167 | 1399 ft | 14 kts | 122° |
| 2026-05-05 19:53 | 47.45383 | 8.55272 | 1403 ft | 11 kts | 117° |
| 2026-05-05 19:53 | 47.45358 | 8.55342 | 1400 ft | 0 kts | 118° |
| 2026-05-05 19:54 | 47.45343 | 8.55383 | 1400 ft | 11 kts | 118° |
| 2026-05-05 19:54 | 47.45293 | 8.55519 | 1410 ft | 17 kts | 118° |
| 2026-05-05 19:54 | 47.45268 | 8.55679 | 1407 ft | 17 kts | 96° |
| 2026-05-05 19:55 | 47.45254 | 8.55864 | 1409 ft | 15 kts | 95° |
| 2026-05-05 19:55 | 47.45260 | 8.55922 | 1413 ft | 4 kts | 40° |
| 2026-05-05 19:55 | 47.45294 | 8.55937 | 1407 ft | 6 kts | 7° |
| 2026-05-05 19:55 | 47.45329 | 8.55943 | 1412 ft | 2 kts | 6° |
| 2026-05-05 19:56 | 47.45330 | 8.55943 | 1412 ft | 0 kts | 6° |